Terminal Aerodrome Forecast
Issued by NWS

Home | Current Version | Previous Version | Graphics & Text | Print | Product List | Glossary On
Versions: 1 2 3 4 5 6 7 8 9 10 11 12 13 14 15 16 17
000
FTUS43 KICT 310500
TAFCNU
TAF
KCNU 310520Z 3106/0106 17005KT P6SM SKC
     FM311100 16005KT 5SM BR FEW250
     FM311400 20014KT P6SM SCT250
     FM311800 19017G25KT P6SM SCT150
     FM010100 17016G23KT P6SM BKN200=

USA.gov is the U.S. government's official web portal to all federal, state and local government web resources and services.